sensor_id;sensor_type;location;lat;lon;timestamp;P1;durP1;ratioP1;P2;durP2;ratioP2
45466;SDS011;31212;49.734;8.490;2023-11-22T07:56:54;2.53;;;1.80;;
45466;SDS011;31212;49.734;8.490;2023-11-22T07:59:21;2.33;;;1.23;;
45466;SDS011;31212;49.734;8.490;2023-11-22T08:01:48;4.30;;;1.53;;
45466;SDS011;31212;49.734;8.490;2023-11-22T08:04:15;1.57;;;0.70;;
45466;SDS011;31212;49.734;8.490;2023-11-22T08:12:02;0.93;;;0.70;;
45466;SDS011;31212;49.734;8.490;2023-11-22T08:14:28;0.53;;;0.40;;
45466;SDS011;31212;49.734;8.490;2023-11-22T08:16:55;2.50;;;0.70;;
45466;SDS011;31212;49.734;8.490;2023-11-22T08:19:22;2.43;;;0.50;;
45466;SDS011;31212;49.734;8.490;2023-11-22T08:21:49;1.33;;;1.23;;
45466;SDS011;31212;49.734;8.490;2023-11-22T08:24:16;1.90;;;1.37;;
45466;SDS011;31212;49.734;8.490;2023-11-22T08:26:44;0.67;;;0.67;;
45466;SDS011;31212;49.734;8.490;2023-11-22T08:31:51;0.77;;;0.77;;
45466;SDS011;31212;49.734;8.490;2023-11-22T08:34:18;0.70;;;0.70;;
45466;SDS011;31212;49.734;8.490;2023-11-22T08:36:45;1.30;;;1.07;;
45466;SDS011;31212;49.734;8.490;2023-11-22T08:39:11;1.17;;;0.67;;
45466;SDS011;31212;49.734;8.490;2023-11-22T08:41:38;3.70;;;2.27;;
45466;SDS011;31212;49.734;8.490;2023-11-22T08:44:05;0.77;;;0.77;;
45466;SDS011;31212;49.734;8.490;2023-11-22T08:46:32;1.07;;;0.73;;
45466;SDS011;31212;49.734;8.490;2023-11-22T08:49:00;4.60;;;1.37;;
45466;SDS011;31212;49.734;8.490;2023-11-22T08:51:27;0.90;;;0.90;;
45466;SDS011;31212;49.734;8.490;2023-11-22T08:53:54;0.93;;;0.67;;
45466;SDS011;31212;49.734;8.490;2023-11-22T08:56:21;1.73;;;1.20;;
45466;SDS011;31212;49.734;8.490;2023-11-22T08:58:48;1.10;;;1.03;;
45466;SDS011;31212;49.734;8.490;2023-11-22T09:01:13;2.00;;;0.93;;
45466;SDS011;31212;49.734;8.490;2023-11-22T09:03:40;0.70;;;0.70;;
45466;SDS011;31212;49.734;8.490;2023-11-22T09:06:11;1.73;;;0.93;;
45466;SDS011;31212;49.734;8.490;2023-11-22T09:08:38;0.67;;;0.63;;
45466;SDS011;31212;49.734;8.490;2023-11-22T09:11:05;2.30;;;1.17;;
45466;SDS011;31212;49.734;8.490;2023-11-22T09:13:32;0.60;;;0.60;;
45466;SDS011;31212;49.734;8.490;2023-11-22T09:16:00;1.80;;;1.00;;
45466;SDS011;31212;49.734;8.490;2023-11-22T09:18:30;1.20;;;0.60;;
45466;SDS011;31212;49.734;8.490;2023-11-22T09:20:57;1.07;;;0.53;;
45466;SDS011;31212;49.734;8.490;2023-11-22T09:23:25;3.27;;;1.30;;
45466;SDS011;31212;49.734;8.490;2023-11-22T09:25:52;1.20;;;1.10;;
45466;SDS011;31212;49.734;8.490;2023-11-22T09:28:19;0.80;;;0.70;;
45466;SDS011;31212;49.734;8.490;2023-11-22T09:30:46;0.53;;;0.53;;
45466;SDS011;31212;49.734;8.490;2023-11-22T09:33:14;1.10;;;1.00;;
45466;SDS011;31212;49.734;8.490;2023-11-22T09:35:41;0.83;;;0.83;;
45466;SDS011;31212;49.734;8.490;2023-11-22T09:38:09;1.40;;;1.07;;
45466;SDS011;31212;49.734;8.490;2023-11-22T09:40:40;0.70;;;0.70;;
45466;SDS011;31212;49.734;8.490;2023-11-22T09:43:07;6.97;;;1.20;;
45466;SDS011;31212;49.734;8.490;2023-11-22T09:45:34;3.67;;;1.40;;
45466;SDS011;31212;49.734;8.490;2023-11-22T09:56:09;1.33;;;0.75;;
45466;SDS011;31212;49.734;8.490;2023-11-22T09:58:38;2.10;;;0.87;;
45466;SDS011;31212;49.734;8.490;2023-11-22T10:01:09;1.52;;;1.42;;
45466;SDS011;31212;49.734;8.490;2023-11-22T10:03:38;1.97;;;1.10;;
45466;SDS011;31212;49.734;8.490;2023-11-22T10:06:05;1.10;;;0.80;;
45466;SDS011;31212;49.734;8.490;2023-11-22T10:08:33;1.25;;;1.05;;
45466;SDS011;31212;49.734;8.490;2023-11-22T10:11:00;1.55;;;0.57;;
45466;SDS011;31212;49.734;8.490;2023-11-22T10:13:30;0.50;;;0.38;;
45466;SDS011;31212;49.734;8.490;2023-11-22T10:16:08;1.55;;;1.45;;
45466;SDS011;31212;49.734;8.490;2023-11-22T10:18:38;0.77;;;0.50;;
45466;SDS011;31212;49.734;8.490;2023-11-22T10:21:15;3.17;;;0.93;;
45466;SDS011;31212;49.734;8.490;2023-11-22T10:23:44;1.02;;;1.02;;
45466;SDS011;31212;49.734;8.490;2023-11-22T10:26:12;2.72;;;1.25;;
45466;SDS011;31212;49.734;8.490;2023-11-22T10:28:42;0.77;;;0.60;;
45466;SDS011;31212;49.734;8.490;2023-11-22T10:31:10;1.55;;;0.63;;
45466;SDS011;31212;49.734;8.490;2023-11-22T10:33:41;1.30;;;0.90;;
45466;SDS011;31212;49.734;8.490;2023-11-22T10:36:11;2.03;;;0.70;;
45466;SDS011;31212;49.734;8.490;2023-11-22T10:38:38;2.85;;;1.13;;
45466;SDS011;31212;49.734;8.490;2023-11-22T10:41:05;0.80;;;0.60;;
45466;SDS011;31212;49.734;8.490;2023-11-22T10:43:34;4.22;;;1.15;;
45466;SDS011;31212;49.734;8.490;2023-11-22T10:46:03;1.48;;;1.27;;
45466;SDS011;31212;49.734;8.490;2023-11-22T10:48:30;1.08;;;0.95;;
45466;SDS011;31212;49.734;8.490;2023-11-22T10:50:59;1.67;;;0.88;;
45466;SDS011;31212;49.734;8.490;2023-11-22T10:53:30;1.00;;;0.70;;
45466;SDS011;31212;49.734;8.490;2023-11-22T10:56:01;0.93;;;0.60;;
45466;SDS011;31212;49.734;8.490;2023-11-22T10:58:29;2.92;;;1.15;;
45466;SDS011;31212;49.734;8.490;2023-11-22T11:11:41;1.60;;;0.73;;
45466;SDS011;31212;49.734;8.490;2023-11-22T11:14:10;0.82;;;0.82;;
45466;SDS011;31212;49.734;8.490;2023-11-22T11:30:03;2.00;;;1.13;;
45466;SDS011;31212;49.734;8.490;2023-11-22T11:32:51;0.95;;;0.75;;
45466;SDS011;31212;49.734;8.490;2023-11-22T11:37:59;0.60;;;0.60;;
45466;SDS011;31212;49.734;8.490;2023-11-22T11:40:30;4.20;;;1.33;;
45466;SDS011;31212;49.734;8.490;2023-11-22T11:42:58;0.80;;;0.70;;
45466;SDS011;31212;49.734;8.490;2023-11-22T11:45:28;0.50;;;0.50;;
45466;SDS011;31212;49.734;8.490;2023-11-22T11:47:56;0.50;;;0.50;;
45466;SDS011;31212;49.734;8.490;2023-11-22T11:50:23;1.35;;;1.08;;
45466;SDS011;31212;49.734;8.490;2023-11-22T11:52:50;0.73;;;0.60;;
45466;SDS011;31212;49.734;8.490;2023-11-22T11:55:17;0.90;;;0.52;;
45466;SDS011;31212;49.734;8.490;2023-11-22T11:57:44;4.78;;;1.20;;
45466;SDS011;31212;49.734;8.490;2023-11-22T12:00:13;1.10;;;0.98;;
45466;SDS011;31212;49.734;8.490;2023-11-22T12:02:41;1.23;;;1.13;;
45466;SDS011;31212;49.734;8.490;2023-11-22T12:05:08;0.70;;;0.60;;
45466;SDS011;31212;49.734;8.490;2023-11-22T12:07:35;0.93;;;0.63;;
45466;SDS011;31212;49.734;8.490;2023-11-22T12:10:02;1.65;;;1.42;;
45466;SDS011;31212;49.734;8.490;2023-11-22T12:12:28;1.13;;;0.85;;
45466;SDS011;31212;49.734;8.490;2023-11-22T12:14:55;1.75;;;1.65;;
45466;SDS011;31212;49.734;8.490;2023-11-22T12:17:23;1.02;;;0.75;;
45466;SDS011;31212;49.734;8.490;2023-11-22T12:19:52;0.63;;;0.50;;
45466;SDS011;31212;49.734;8.490;2023-11-22T12:22:19;2.20;;;1.17;;
45466;SDS011;31212;49.734;8.490;2023-11-22T12:24:46;0.75;;;0.75;;
45466;SDS011;31212;49.734;8.490;2023-11-22T12:27:13;0.73;;;0.70;;
45466;SDS011;31212;49.734;8.490;2023-11-22T12:29:40;3.65;;;1.50;;
45466;SDS011;31212;49.734;8.490;2023-11-22T12:32:08;2.90;;;1.20;;
45466;SDS011;31212;49.734;8.490;2023-11-22T12:34:34;0.95;;;0.85;;
45466;SDS011;31212;49.734;8.490;2023-11-22T12:37:05;3.08;;;1.33;;
45466;SDS011;31212;49.734;8.490;2023-11-22T12:39:33;2.08;;;1.20;;
45466;SDS011;31212;49.734;8.490;2023-11-22T12:42:02;1.15;;;1.05;;
45466;SDS011;31212;49.734;8.490;2023-11-22T12:44:43;1.55;;;0.90;;
45466;SDS011;31212;49.734;8.490;2023-11-22T12:47:13;1.02;;;0.82;;
45466;SDS011;31212;49.734;8.490;2023-11-22T12:49:44;2.00;;;0.55;;
45466;SDS011;31212;49.734;8.490;2023-11-22T12:52:13;1.15;;;0.90;;
45466;SDS011;31212;49.734;8.490;2023-11-22T12:54:39;1.70;;;1.07;;
45466;SDS011;31212;49.734;8.490;2023-11-22T12:57:10;0.95;;;0.52;;
45466;SDS011;31212;49.734;8.490;2023-11-22T12:59:38;1.92;;;1.10;;
45466;SDS011;31212;49.734;8.490;2023-11-22T13:02:05;1.10;;;1.10;;
45466;SDS011;31212;49.734;8.490;2023-11-22T13:04:32;1.17;;;0.90;;
45466;SDS011;31212;49.734;8.490;2023-11-22T13:06:59;0.80;;;0.73;;
45466;SDS011;31212;49.734;8.490;2023-11-22T13:09:26;1.67;;;1.13;;
45466;SDS011;31212;49.734;8.490;2023-11-22T13:11:54;0.85;;;0.77;;
45466;SDS011;31212;49.734;8.490;2023-11-22T13:14:21;3.35;;;1.02;;
45466;SDS011;31212;49.734;8.490;2023-11-22T13:16:48;0.87;;;0.87;;
45466;SDS011;31212;49.734;8.490;2023-11-22T13:19:15;0.70;;;0.70;;
45466;SDS011;31212;49.734;8.490;2023-11-22T13:21:42;0.70;;;0.70;;
45466;SDS011;31212;49.734;8.490;2023-11-22T13:24:10;1.00;;;0.90;;
45466;SDS011;31212;49.734;8.490;2023-11-22T13:26:40;7.57;;;1.27;;
45466;SDS011;31212;49.734;8.490;2023-11-22T13:29:07;1.17;;;0.83;;
45466;SDS011;31212;49.734;8.490;2023-11-22T13:31:34;1.08;;;1.08;;
45466;SDS011;31212;49.734;8.490;2023-11-22T13:34:01;1.67;;;0.97;;
45466;SDS011;31212;49.734;8.490;2023-11-22T13:36:28;1.37;;;0.80;;
45466;SDS011;31212;49.734;8.490;2023-11-22T13:38:55;1.83;;;1.10;;
45466;SDS011;31212;49.734;8.490;2023-11-22T13:41:21;15.53;;;1.20;;
45466;SDS011;31212;49.734;8.490;2023-11-22T13:43:51;1.43;;;0.87;;
45466;SDS011;31212;49.734;8.490;2023-11-22T13:46:18;1.63;;;0.63;;
45466;SDS011;31212;49.734;8.490;2023-11-22T13:48:45;0.70;;;0.70;;
45466;SDS011;31212;49.734;8.490;2023-11-22T13:51:12;1.67;;;1.17;;
45466;SDS011;31212;49.734;8.490;2023-11-22T13:53:39;1.57;;;0.93;;
45466;SDS011;31212;49.734;8.490;2023-11-22T13:56:09;2.65;;;1.48;;
45466;SDS011;31212;49.734;8.490;2023-11-22T13:58:36;1.97;;;1.30;;
45466;SDS011;31212;49.734;8.490;2023-11-22T14:01:05;3.37;;;1.07;;
45466;SDS011;31212;49.734;8.490;2023-11-22T14:03:37;1.57;;;1.10;;
45466;SDS011;31212;49.734;8.490;2023-11-22T14:06:04;2.78;;;1.30;;
45466;SDS011;31212;49.734;8.490;2023-11-22T14:08:31;4.20;;;2.45;;
45466;SDS011;31212;49.734;8.490;2023-11-22T14:10:58;9.43;;;3.80;;
45466;SDS011;31212;49.734;8.490;2023-11-22T14:13:24;1.30;;;0.88;;
45466;SDS011;31212;49.734;8.490;2023-11-22T14:15:51;2.65;;;0.95;;
45466;SDS011;31212;49.734;8.490;2023-11-22T14:18:19;1.08;;;0.45;;
45466;SDS011;31212;49.734;8.490;2023-11-22T14:20:46;3.00;;;0.75;;
45466;SDS011;31212;49.734;8.490;2023-11-22T14:23:13;2.15;;;1.13;;
45466;SDS011;31212;49.734;8.490;2023-11-22T14:25:39;1.85;;;1.15;;
45466;SDS011;31212;49.734;8.490;2023-11-22T14:28:06;2.63;;;1.55;;
45466;SDS011;31212;49.734;8.490;2023-11-22T14:30:33;1.07;;;0.97;;
45466;SDS011;31212;49.734;8.490;2023-11-22T14:33:02;2.92;;;1.35;;
45466;SDS011;31212;49.734;8.490;2023-11-22T14:35:33;1.80;;;1.60;;
45466;SDS011;31212;49.734;8.490;2023-11-22T14:38:01;3.40;;;1.50;;
45466;SDS011;31212;49.734;8.490;2023-11-22T14:40:28;4.70;;;2.10;;
45466;SDS011;31212;49.734;8.490;2023-11-22T14:42:56;0.70;;;0.60;;
45466;SDS011;31212;49.734;8.490;2023-11-22T14:45:23;0.87;;;0.70;;
45466;SDS011;31212;49.734;8.490;2023-11-22T14:47:51;0.77;;;0.77;;
45466;SDS011;31212;49.734;8.490;2023-11-22T14:50:18;0.70;;;0.70;;
45466;SDS011;31212;49.734;8.490;2023-11-22T14:52:47;0.50;;;0.50;;
45466;SDS011;31212;49.734;8.490;2023-11-22T14:55:15;1.13;;;0.70;;
45466;SDS011;31212;49.734;8.490;2023-11-22T14:57:43;1.00;;;0.90;;
45466;SDS011;31212;49.734;8.490;2023-11-22T15:00:10;1.50;;;1.40;;
45466;SDS011;31212;49.734;8.490;2023-11-22T15:02:39;0.50;;;0.50;;
45466;SDS011;31212;49.734;8.490;2023-11-22T15:05:07;1.97;;;0.70;;
45466;SDS011;31212;49.734;8.490;2023-11-22T15:07:35;1.53;;;1.33;;
45466;SDS011;31212;49.734;8.490;2023-11-22T15:10:05;0.60;;;0.53;;
45466;SDS011;31212;49.734;8.490;2023-11-22T15:12:32;1.63;;;1.50;;
45466;SDS011;31212;49.734;8.490;2023-11-22T15:14:59;1.90;;;1.47;;
45466;SDS011;31212;49.734;8.490;2023-11-22T15:20:01;1.83;;;0.87;;
45466;SDS011;31212;49.734;8.490;2023-11-22T15:22:28;0.53;;;0.53;;
45466;SDS011;31212;49.734;8.490;2023-11-22T15:24:55;2.23;;;1.47;;
45466;SDS011;31212;49.734;8.490;2023-11-22T15:27:23;1.50;;;0.97;;
45466;SDS011;31212;49.734;8.490;2023-11-22T15:29:50;0.70;;;0.60;;
45466;SDS011;31212;49.734;8.490;2023-11-22T15:34:53;2.53;;;1.20;;
45466;SDS011;31212;49.734;8.490;2023-11-22T15:37:20;0.70;;;0.60;;
45466;SDS011;31212;49.734;8.490;2023-11-22T15:39:47;10.60;;;1.13;;
45466;SDS011;31212;49.734;8.490;2023-11-22T15:42:13;1.33;;;1.13;;
45466;SDS011;31212;49.734;8.490;2023-11-22T15:44:43;1.23;;;1.13;;
45466;SDS011;31212;49.734;8.490;2023-11-22T15:47:10;1.07;;;0.97;;
45466;SDS011;31212;49.734;8.490;2023-11-22T15:49:36;1.00;;;0.90;;
45466;SDS011;31212;49.734;8.490;2023-11-22T15:54:32;0.67;;;0.67;;
45466;SDS011;31212;49.734;8.490;2023-11-22T15:56:59;0.50;;;0.50;;
45466;SDS011;31212;49.734;8.490;2023-11-22T15:59:26;0.87;;;0.60;;
45466;SDS011;31212;49.734;8.490;2023-11-22T16:01:55;4.23;;;2.23;;
45466;SDS011;31212;49.734;8.490;2023-11-22T16:04:22;4.27;;;2.30;;
45466;SDS011;31212;49.734;8.490;2023-11-22T16:06:49;18.87;;;5.57;;
45466;SDS011;31212;49.734;8.490;2023-11-22T16:09:16;22.47;;;6.53;;
45466;SDS011;31212;49.734;8.490;2023-11-22T16:11:43;14.67;;;5.00;;
45466;SDS011;31212;49.734;8.490;2023-11-22T16:14:10;5.33;;;2.73;;
45466;SDS011;31212;49.734;8.490;2023-11-22T16:16:37;5.30;;;3.57;;
45466;SDS011;31212;49.734;8.490;2023-11-22T16:24:30;3.63;;;3.27;;
45466;SDS011;31212;49.734;8.490;2023-11-22T16:26:57;4.17;;;2.27;;
45466;SDS011;31212;49.734;8.490;2023-11-22T16:29:25;7.57;;;1.93;;
45466;SDS011;31212;49.734;8.490;2023-11-22T16:39:59;4.30;;;1.57;;
45466;SDS011;31212;49.734;8.490;2023-11-22T16:42:30;2.53;;;1.95;;
45466;SDS011;31212;49.734;8.490;2023-11-22T16:44:57;4.33;;;1.23;;
45466;SDS011;31212;49.734;8.490;2023-11-22T16:47:25;1.70;;;1.17;;
45466;SDS011;31212;49.734;8.490;2023-11-22T16:49:52;0.87;;;0.83;;
45466;SDS011;31212;49.734;8.490;2023-11-22T16:52:18;1.17;;;1.07;;
45466;SDS011;31212;49.734;8.490;2023-11-22T16:54:50;0.70;;;0.70;;
45466;SDS011;31212;49.734;8.490;2023-11-22T16:57:19;2.00;;;0.83;;
45466;SDS011;31212;49.734;8.490;2023-11-22T16:59:46;0.80;;;0.80;;
45466;SDS011;31212;49.734;8.490;2023-11-22T17:02:13;0.87;;;0.87;;
45466;SDS011;31212;49.734;8.490;2023-11-22T17:04:43;3.50;;;1.33;;
45466;SDS011;31212;49.734;8.490;2023-11-22T17:12:29;1.10;;;1.03;;
45466;SDS011;31212;49.734;8.490;2023-11-22T17:14:56;1.70;;;1.13;;
45466;SDS011;31212;49.734;8.490;2023-11-22T17:17:23;2.23;;;1.10;;
45466;SDS011;31212;49.734;8.490;2023-11-22T17:19:53;4.53;;;3.03;;
45466;SDS011;31212;49.734;8.490;2023-11-22T17:22:20;5.40;;;1.10;;
45466;SDS011;31212;49.734;8.490;2023-11-22T17:24:46;2.03;;;1.50;;
45466;SDS011;31212;49.734;8.490;2023-11-22T17:27:14;0.60;;;0.60;;
45466;SDS011;31212;49.734;8.490;2023-11-22T17:29:42;0.77;;;0.70;;
45466;SDS011;31212;49.734;8.490;2023-11-22T17:32:09;2.03;;;1.60;;
45466;SDS011;31212;49.734;8.490;2023-11-22T17:34:37;1.73;;;0.87;;
45466;SDS011;31212;49.734;8.490;2023-11-22T17:37:03;1.27;;;1.20;;
45466;SDS011;31212;49.734;8.490;2023-11-22T17:39:30;8.30;;;1.77;;
45466;SDS011;31212;49.734;8.490;2023-11-22T17:41:57;0.83;;;0.83;;
45466;SDS011;31212;49.734;8.490;2023-11-22T17:44:24;1.13;;;1.00;;
45466;SDS011;31212;49.734;8.490;2023-11-22T17:46:52;1.33;;;0.60;;
45466;SDS011;31212;49.734;8.490;2023-11-22T17:49:19;0.50;;;0.50;;
45466;SDS011;31212;49.734;8.490;2023-11-22T17:51:47;1.00;;;0.97;;
45466;SDS011;31212;49.734;8.490;2023-11-22T17:54:19;1.30;;;0.90;;
45466;SDS011;31212;49.734;8.490;2023-11-22T17:56:46;1.40;;;0.93;;
45466;SDS011;31212;49.734;8.490;2023-11-22T17:59:13;1.50;;;0.93;;
45466;SDS011;31212;49.734;8.490;2023-11-22T18:01:40;2.87;;;1.20;;
45466;SDS011;31212;49.734;8.490;2023-11-22T18:04:09;1.83;;;1.23;;
45466;SDS011;31212;49.734;8.490;2023-11-22T18:06:36;1.23;;;0.93;;
45466;SDS011;31212;49.734;8.490;2023-11-22T18:09:03;1.80;;;1.43;;
45466;SDS011;31212;49.734;8.490;2023-11-22T18:11:30;7.90;;;1.80;;
45466;SDS011;31212;49.734;8.490;2023-11-22T18:13:57;1.93;;;1.60;;
45466;SDS011;31212;49.734;8.490;2023-11-22T18:16:26;0.87;;;0.87;;
45466;SDS011;31212;49.734;8.490;2023-11-22T18:18:53;1.13;;;0.93;;
45466;SDS011;31212;49.734;8.490;2023-11-22T18:21:21;3.03;;;1.53;;
45466;SDS011;31212;49.734;8.490;2023-11-22T18:23:48;4.73;;;3.50;;
45466;SDS011;31212;49.734;8.490;2023-11-22T18:26:16;10.63;;;3.43;;
45466;SDS011;31212;49.734;8.490;2023-11-22T18:28:43;1.87;;;1.20;;
45466;SDS011;31212;49.734;8.490;2023-11-22T18:31:10;2.40;;;1.43;;
45466;SDS011;31212;49.734;8.490;2023-11-22T18:33:39;1.43;;;1.33;;
45466;SDS011;31212;49.734;8.490;2023-11-22T18:36:06;0.60;;;0.60;;
45466;SDS011;31212;49.734;8.490;2023-11-22T18:38:35;0.90;;;0.90;;
45466;SDS011;31212;49.734;8.490;2023-11-22T18:41:01;7.33;;;1.70;;
45466;SDS011;31212;49.734;8.490;2023-11-22T18:43:29;0.67;;;0.67;;
45466;SDS011;31212;49.734;8.490;2023-11-22T18:45:56;2.80;;;2.00;;
45466;SDS011;31212;49.734;8.490;2023-11-22T18:48:28;3.47;;;1.63;;
45466;SDS011;31212;49.734;8.490;2023-11-22T18:50:55;4.87;;;1.70;;
45466;SDS011;31212;49.734;8.490;2023-11-22T18:53:22;3.40;;;1.37;;
45466;SDS011;31212;49.734;8.490;2023-11-22T18:55:53;2.90;;;1.93;;
45466;SDS011;31212;49.734;8.490;2023-11-22T18:58:20;2.17;;;1.70;;
45466;SDS011;31212;49.734;8.490;2023-11-22T19:00:47;7.03;;;2.37;;
45466;SDS011;31212;49.734;8.490;2023-11-22T19:03:14;7.43;;;3.50;;
45466;SDS011;31212;49.734;8.490;2023-11-22T19:05:41;2.83;;;2.47;;
45466;SDS011;31212;49.734;8.490;2023-11-22T19:08:08;4.77;;;2.60;;
45466;SDS011;31212;49.734;8.490;2023-11-22T19:10:35;2.07;;;1.90;;
45466;SDS011;31212;49.734;8.490;2023-11-22T19:13:06;5.67;;;2.77;;
45466;SDS011;31212;49.734;8.490;2023-11-22T19:18:16;6.90;;;2.93;;
45466;SDS011;31212;49.734;8.490;2023-11-22T19:20:43;28.63;;;6.23;;
45466;SDS011;31212;49.734;8.490;2023-11-22T19:23:15;11.53;;;6.10;;
45466;SDS011;31212;49.734;8.490;2023-11-22T19:25:41;6.23;;;3.67;;
45466;SDS011;31212;49.734;8.490;2023-11-22T19:28:10;5.27;;;2.33;;
45466;SDS011;31212;49.734;8.490;2023-11-22T19:30:37;3.23;;;1.60;;
45466;SDS011;31212;49.734;8.490;2023-11-22T19:38:28;2.23;;;2.00;;
45466;SDS011;31212;49.734;8.490;2023-11-22T19:40:56;1.63;;;1.53;;
45466;SDS011;31212;49.734;8.490;2023-11-22T19:43:25;2.00;;;1.43;;
45466;SDS011;31212;49.734;8.490;2023-11-22T19:45:52;1.50;;;1.30;;
45466;SDS011;31212;49.734;8.490;2023-11-22T19:48:19;3.17;;;1.57;;
45466;SDS011;31212;49.734;8.490;2023-11-22T19:50:46;1.30;;;1.20;;
45466;SDS011;31212;49.734;8.490;2023-11-22T19:53:13;3.33;;;2.13;;
45466;SDS011;31212;49.734;8.490;2023-11-22T19:55:42;7.33;;;2.30;;
45466;SDS011;31212;49.734;8.490;2023-11-22T19:58:12;3.40;;;1.63;;
45466;SDS011;31212;49.734;8.490;2023-11-22T20:00:41;3.87;;;2.47;;
45466;SDS011;31212;49.734;8.490;2023-11-22T20:03:09;2.37;;;1.43;;
45466;SDS011;31212;49.734;8.490;2023-11-22T20:05:37;0.70;;;0.70;;
45466;SDS011;31212;49.734;8.490;2023-11-22T20:08:04;1.70;;;0.97;;
45466;SDS011;31212;49.734;8.490;2023-11-22T20:10:36;1.00;;;1.00;;
45466;SDS011;31212;49.734;8.490;2023-11-22T20:13:03;3.40;;;1.30;;
45466;SDS011;31212;49.734;8.490;2023-11-22T20:15:33;1.63;;;1.50;;
45466;SDS011;31212;49.734;8.490;2023-11-22T20:18:02;0.90;;;0.90;;
45466;SDS011;31212;49.734;8.490;2023-11-22T20:20:29;1.53;;;1.00;;
45466;SDS011;31212;49.734;8.490;2023-11-22T20:22:56;1.23;;;1.10;;
45466;SDS011;31212;49.734;8.490;2023-11-22T20:25:25;1.63;;;1.40;;
45466;SDS011;31212;49.734;8.490;2023-11-22T20:27:52;2.93;;;1.57;;
45466;SDS011;31212;49.734;8.490;2023-11-22T20:30:19;2.77;;;1.43;;
45466;SDS011;31212;49.734;8.490;2023-11-22T20:32:46;2.23;;;0.97;;
45466;SDS011;31212;49.734;8.490;2023-11-22T20:35:15;3.77;;;2.30;;
45466;SDS011;31212;49.734;8.490;2023-11-22T20:37:42;2.50;;;1.10;;
45466;SDS011;31212;49.734;8.490;2023-11-22T20:40:09;3.83;;;1.67;;
45466;SDS011;31212;49.734;8.490;2023-11-22T20:42:36;3.70;;;1.23;;
45466;SDS011;31212;49.734;8.490;2023-11-22T20:45:03;5.77;;;1.97;;
45466;SDS011;31212;49.734;8.490;2023-11-22T20:47:31;1.20;;;1.07;;
45466;SDS011;31212;49.734;8.490;2023-11-22T20:49:57;1.17;;;1.03;;
45466;SDS011;31212;49.734;8.490;2023-11-22T20:57:49;2.30;;;1.13;;
45466;SDS011;31212;49.734;8.490;2023-11-22T21:00:17;2.30;;;2.07;;
45466;SDS011;31212;49.734;8.490;2023-11-22T21:02:44;1.00;;;0.90;;
45466;SDS011;31212;49.734;8.490;2023-11-22T21:05:11;2.10;;;1.67;;
45466;SDS011;31212;49.734;8.490;2023-11-22T21:07:38;2.40;;;0.77;;
45466;SDS011;31212;49.734;8.490;2023-11-22T21:10:05;2.47;;;0.80;;
45466;SDS011;31212;49.734;8.490;2023-11-22T21:12:34;2.77;;;2.10;;
45466;SDS011;31212;49.734;8.490;2023-11-22T21:15:04;2.63;;;2.23;;
45466;SDS011;31212;49.734;8.490;2023-11-22T21:17:31;1.67;;;1.33;;
45466;SDS011;31212;49.734;8.490;2023-11-22T21:19:59;1.90;;;1.13;;
45466;SDS011;31212;49.734;8.490;2023-11-22T21:22:43;2.53;;;1.53;;
45466;SDS011;31212;49.734;8.490;2023-11-22T21:25:10;2.50;;;2.30;;
45466;SDS011;31212;49.734;8.490;2023-11-22T21:27:37;2.40;;;2.23;;
45466;SDS011;31212;49.734;8.490;2023-11-22T21:30:10;1.90;;;1.70;;
45466;SDS011;31212;49.734;8.490;2023-11-22T21:32:37;3.40;;;1.67;;
45466;SDS011;31212;49.734;8.490;2023-11-22T21:35:05;5.57;;;1.60;;
45466;SDS011;31212;49.734;8.490;2023-11-22T21:37:33;4.53;;;1.27;;
45466;SDS011;31212;49.734;8.490;2023-11-22T21:40:01;5.37;;;2.33;;
45466;SDS011;31212;49.734;8.490;2023-11-22T21:42:33;1.55;;;0.98;;
45466;SDS011;31212;49.734;8.490;2023-11-22T21:45:01;4.07;;;2.63;;
45466;SDS011;31212;49.734;8.490;2023-11-22T21:47:34;2.13;;;1.33;;
45466;SDS011;31212;49.734;8.490;2023-11-22T21:50:02;10.33;;;1.40;;
45466;SDS011;31212;49.734;8.490;2023-11-22T21:52:29;1.77;;;0.73;;
45466;SDS011;31212;49.734;8.490;2023-11-22T21:54:56;3.70;;;1.53;;
45466;SDS011;31212;49.734;8.490;2023-11-22T21:57:23;3.90;;;1.80;;
45466;SDS011;31212;49.734;8.490;2023-11-22T21:59:50;3.50;;;1.70;;
45466;SDS011;31212;49.734;8.490;2023-11-22T22:02:18;1.47;;;1.37;;
45466;SDS011;31212;49.734;8.490;2023-11-22T22:04:46;6.67;;;1.23;;
45466;SDS011;31212;49.734;8.490;2023-11-22T22:07:13;1.53;;;1.37;;
45466;SDS011;31212;49.734;8.490;2023-11-22T22:09:42;3.23;;;2.53;;
45466;SDS011;31212;49.734;8.490;2023-11-22T22:12:09;2.03;;;1.30;;
45466;SDS011;31212;49.734;8.490;2023-11-22T22:14:35;4.17;;;2.20;;
45466;SDS011;31212;49.734;8.490;2023-11-22T22:17:02;0.90;;;0.90;;
45466;SDS011;31212;49.734;8.490;2023-11-22T22:19:29;2.83;;;1.50;;
45466;SDS011;31212;49.734;8.490;2023-11-22T22:21:58;3.23;;;1.83;;
45466;SDS011;31212;49.734;8.490;2023-11-22T22:24:25;1.77;;;1.57;;
45466;SDS011;31212;49.734;8.490;2023-11-22T22:26:52;5.23;;;2.10;;
45466;SDS011;31212;49.734;8.490;2023-11-22T22:29:19;1.57;;;0.97;;
45466;SDS011;31212;49.734;8.490;2023-11-22T22:31:46;4.83;;;2.60;;
45466;SDS011;31212;49.734;8.490;2023-11-22T22:34:13;3.77;;;2.70;;
45466;SDS011;31212;49.734;8.490;2023-11-22T22:36:40;2.20;;;1.87;;
45466;SDS011;31212;49.734;8.490;2023-11-22T22:39:08;2.43;;;1.83;;
45466;SDS011;31212;49.734;8.490;2023-11-22T22:41:35;2.90;;;1.80;;
45466;SDS011;31212;49.734;8.490;2023-11-22T22:44:03;1.60;;;1.10;;
45466;SDS011;31212;49.734;8.490;2023-11-22T22:46:31;5.20;;;1.30;;
45466;SDS011;31212;49.734;8.490;2023-11-22T22:48:58;4.27;;;1.97;;
45466;SDS011;31212;49.734;8.490;2023-11-22T22:51:25;1.77;;;1.67;;
45466;SDS011;31212;49.734;8.490;2023-11-22T22:53:52;1.70;;;1.60;;
45466;SDS011;31212;49.734;8.490;2023-11-22T22:56:20;2.73;;;1.43;;
45466;SDS011;31212;49.734;8.490;2023-11-22T22:58:47;2.07;;;1.60;;
45466;SDS011;31212;49.734;8.490;2023-11-22T23:01:15;2.80;;;2.03;;
45466;SDS011;31212;49.734;8.490;2023-11-22T23:03:43;2.47;;;1.10;;
45466;SDS011;31212;49.734;8.490;2023-11-22T23:06:19;0.93;;;0.77;;
45466;SDS011;31212;49.734;8.490;2023-11-22T23:08:46;2.73;;;1.47;;
